LFRS/NTE METAR and TAF weather

Enter ICAO airport designator
Station Type Date Time Source
LFRS METAR 2019/04/25 12:00 UTC NOAA

LFRS 251200Z AUTO 21016KT 190V250 9999 BKN033/// BKN039/// ///TCU 13/07 Q1002 TEMPO 20020G30KT 3000 TSRAGS BKN008 BKN040CB


Station Type Date Time Source
LFRS Decoded METAR 2019/04/25 12:00 UTC NOAA

Nantes, France (LFRS) 47-10N 001-36W 27M
Apr 25, 2019 - 08:00 AM EDT / 2019.04.25 1200 UTC
Wind: from the SSW (210 degrees) at 18 MPH (16 KT) (direction variable):0
Visibility: greater than 7 mile(s):0
Sky conditions: mostly cloudy
Weather: Cumulonimbus clouds, towering cumulus clouds observed
Temperature: 55 F (13 C)
Dew Point: 44 F (7 C)
Relative Humidity: 66%
Pressure (altimeter): 29.59 in. Hg (1002 hPa)
ob: LFRS 251200Z AUTO 21016KT 190V250 9999 BKN033/// BKN039/// ///TCU 13/07 Q1002 TEMPO 20020G30KT 3000 TSRAGS BKN008 BKN040CB
cycle: 12

Station Type Date Time Source
LFRS TAF 2019/04/25 12:21 UTC NOAA

TAF LFRS 251100Z 2512/2618 20011KT 9999 SCT030 SCT070
TEMPO 2512/2606 -SHRA BKN020TCU SCT050CB PROB40
TEMPO 2512/2515 20020G30KT 3000 TSRAGS BKN008 BKN040CB PROB30
TEMPO 2605/2607 3000 MIFG
BECMG 2607/2609 26010KT
TEMPO 2609/2618 -SHRA BKN020TCU SCT050CB

Example: see airport list